sensor_id;sensor_type;location;lat;lon;timestamp;P1;durP1;ratioP1;P2;durP2;ratioP2
44272;SDS011;29964;17.182;-96.766;2022-10-22T00:02:13;2.20;;;0.93;;
44272;SDS011;29964;17.182;-96.766;2022-10-22T00:04:44;2.20;;;1.17;;
44272;SDS011;29964;17.182;-96.766;2022-10-22T00:07:11;1.40;;;1.00;;
44272;SDS011;29964;17.182;-96.766;2022-10-22T00:09:38;1.97;;;1.07;;
44272;SDS011;29964;17.182;-96.766;2022-10-22T00:12:05;2.77;;;0.77;;
44272;SDS011;29964;17.182;-96.766;2022-10-22T00:14:31;1.57;;;1.03;;
44272;SDS011;29964;17.182;-96.766;2022-10-22T00:16:58;2.17;;;1.40;;
44272;SDS011;29964;17.182;-96.766;2022-10-22T00:19:28;2.57;;;1.63;;
44272;SDS011;29964;17.182;-96.766;2022-10-22T00:21:54;7.33;;;1.97;;
44272;SDS011;29964;17.182;-96.766;2022-10-22T00:24:22;3.40;;;1.90;;
44272;SDS011;29964;17.182;-96.766;2022-10-22T00:26:49;1.77;;;1.40;;
44272;SDS011;29964;17.182;-96.766;2022-10-22T00:29:16;4.03;;;1.97;;
44272;SDS011;29964;17.182;-96.766;2022-10-22T00:31:44;4.53;;;2.23;;
44272;SDS011;29964;17.182;-96.766;2022-10-22T00:34:17;2.97;;;1.70;;
44272;SDS011;29964;17.182;-96.766;2022-10-22T00:36:46;2.00;;;1.30;;
44272;SDS011;29964;17.182;-96.766;2022-10-22T00:39:16;5.13;;;2.10;;
44272;SDS011;29964;17.182;-96.766;2022-10-22T00:41:44;3.23;;;1.60;;
44272;SDS011;29964;17.182;-96.766;2022-10-22T00:46:56;4.10;;;2.03;;
44272;SDS011;29964;17.182;-96.766;2022-10-22T00:49:23;2.50;;;1.63;;
44272;SDS011;29964;17.182;-96.766;2022-10-22T00:51:50;2.70;;;1.83;;
44272;SDS011;29964;17.182;-96.766;2022-10-22T00:54:16;6.57;;;2.87;;
44272;SDS011;29964;17.182;-96.766;2022-10-22T00:56:43;8.60;;;2.90;;
44272;SDS011;29964;17.182;-96.766;2022-10-22T00:59:10;5.47;;;2.47;;
44272;SDS011;29964;17.182;-96.766;2022-10-22T01:01:38;3.73;;;1.97;;
44272;SDS011;29964;17.182;-96.766;2022-10-22T01:04:05;12.10;;;2.50;;
44272;SDS011;29964;17.182;-96.766;2022-10-22T01:06:32;1.97;;;1.37;;
44272;SDS011;29964;17.182;-96.766;2022-10-22T01:11:26;2.60;;;1.60;;
44272;SDS011;29964;17.182;-96.766;2022-10-22T01:14:12;1.67;;;1.37;;
44272;SDS011;29964;17.182;-96.766;2022-10-22T01:16:53;1.43;;;1.00;;
44272;SDS011;29964;17.182;-96.766;2022-10-22T01:21:55;4.70;;;2.53;;
44272;SDS011;29964;17.182;-96.766;2022-10-22T01:24:37;2.73;;;2.00;;
44272;SDS011;29964;17.182;-96.766;2022-10-22T01:27:08;3.60;;;2.23;;
44272;SDS011;29964;17.182;-96.766;2022-10-22T01:29:42;17.50;;;2.37;;
44272;SDS011;29964;17.182;-96.766;2022-10-22T01:32:12;6.37;;;2.63;;
44272;SDS011;29964;17.182;-96.766;2022-10-22T01:34:41;2.07;;;1.47;;
44272;SDS011;29964;17.182;-96.766;2022-10-22T01:37:09;4.00;;;2.50;;
44272;SDS011;29964;17.182;-96.766;2022-10-22T01:39:37;21.87;;;1.93;;
44272;SDS011;29964;17.182;-96.766;2022-10-22T01:42:05;4.97;;;2.57;;
44272;SDS011;29964;17.182;-96.766;2022-10-22T01:44:33;6.77;;;2.47;;
44272;SDS011;29964;17.182;-96.766;2022-10-22T01:49:43;3.63;;;2.30;;
44272;SDS011;29964;17.182;-96.766;2022-10-22T02:00:09;1.37;;;1.20;;
44272;SDS011;29964;17.182;-96.766;2022-10-22T02:05:08;6.27;;;2.53;;
44272;SDS011;29964;17.182;-96.766;2022-10-22T02:07:42;5.10;;;2.17;;
44272;SDS011;29964;17.182;-96.766;2022-10-22T02:10:09;2.50;;;1.83;;
44272;SDS011;29964;17.182;-96.766;2022-10-22T02:12:37;2.80;;;1.70;;
44272;SDS011;29964;17.182;-96.766;2022-10-22T02:15:05;1.50;;;1.07;;
44272;SDS011;29964;17.182;-96.766;2022-10-22T02:17:33;5.83;;;1.97;;
44272;SDS011;29964;17.182;-96.766;2022-10-22T02:20:04;2.30;;;1.50;;
44272;SDS011;29964;17.182;-96.766;2022-10-22T02:22:31;2.77;;;1.53;;
44272;SDS011;29964;17.182;-96.766;2022-10-22T02:24:58;1.93;;;1.43;;
44272;SDS011;29964;17.182;-96.766;2022-10-22T02:27:29;2.90;;;1.67;;
44272;SDS011;29964;17.182;-96.766;2022-10-22T02:32:25;1.60;;;1.20;;
44272;SDS011;29964;17.182;-96.766;2022-10-22T02:34:53;4.27;;;2.40;;
44272;SDS011;29964;17.182;-96.766;2022-10-22T02:37:21;1.13;;;0.90;;
44272;SDS011;29964;17.182;-96.766;2022-10-22T02:39:48;6.17;;;2.43;;
44272;SDS011;29964;17.182;-96.766;2022-10-22T02:42:15;5.53;;;2.57;;
44272;SDS011;29964;17.182;-96.766;2022-10-22T02:44:42;2.00;;;1.50;;
44272;SDS011;29964;17.182;-96.766;2022-10-22T02:47:09;2.63;;;1.83;;
44272;SDS011;29964;17.182;-96.766;2022-10-22T02:49:36;4.73;;;2.67;;
44272;SDS011;29964;17.182;-96.766;2022-10-22T02:52:02;5.93;;;2.37;;
44272;SDS011;29964;17.182;-96.766;2022-10-22T02:54:29;4.97;;;2.80;;
44272;SDS011;29964;17.182;-96.766;2022-10-22T02:56:56;2.93;;;1.80;;
44272;SDS011;29964;17.182;-96.766;2022-10-22T02:59:23;3.17;;;1.87;;
44272;SDS011;29964;17.182;-96.766;2022-10-22T03:01:49;5.03;;;2.27;;
44272;SDS011;29964;17.182;-96.766;2022-10-22T03:04:16;5.53;;;1.97;;
44272;SDS011;29964;17.182;-96.766;2022-10-22T03:06:43;3.43;;;2.10;;
44272;SDS011;29964;17.182;-96.766;2022-10-22T03:09:10;5.00;;;2.23;;
44272;SDS011;29964;17.182;-96.766;2022-10-22T03:11:37;31.63;;;2.13;;
44272;SDS011;29964;17.182;-96.766;2022-10-22T03:14:03;5.93;;;2.30;;
44272;SDS011;29964;17.182;-96.766;2022-10-22T03:16:30;2.23;;;1.33;;
44272;SDS011;29964;17.182;-96.766;2022-10-22T03:18:57;2.80;;;1.90;;
44272;SDS011;29964;17.182;-96.766;2022-10-22T03:21:33;5.33;;;2.10;;
44272;SDS011;29964;17.182;-96.766;2022-10-22T03:24:11;5.67;;;2.67;;
44272;SDS011;29964;17.182;-96.766;2022-10-22T03:26:38;3.50;;;2.27;;
44272;SDS011;29964;17.182;-96.766;2022-10-22T03:29:07;3.30;;;1.97;;
44272;SDS011;29964;17.182;-96.766;2022-10-22T03:31:34;9.67;;;2.80;;
44272;SDS011;29964;17.182;-96.766;2022-10-22T03:34:00;3.93;;;1.67;;
44272;SDS011;29964;17.182;-96.766;2022-10-22T03:36:27;2.87;;;1.10;;
44272;SDS011;29964;17.182;-96.766;2022-10-22T03:38:54;2.70;;;1.40;;
44272;SDS011;29964;17.182;-96.766;2022-10-22T03:41:21;0.77;;;0.60;;
44272;SDS011;29964;17.182;-96.766;2022-10-22T03:43:47;1.40;;;0.80;;
44272;SDS011;29964;17.182;-96.766;2022-10-22T03:46:17;5.50;;;1.23;;
44272;SDS011;29964;17.182;-96.766;2022-10-22T03:48:44;2.40;;;1.63;;
44272;SDS011;29964;17.182;-96.766;2022-10-22T03:51:11;1.73;;;0.93;;
44272;SDS011;29964;17.182;-96.766;2022-10-22T03:53:38;3.00;;;1.43;;
44272;SDS011;29964;17.182;-96.766;2022-10-22T03:56:08;2.73;;;1.30;;
44272;SDS011;29964;17.182;-96.766;2022-10-22T03:58:35;4.53;;;1.97;;
44272;SDS011;29964;17.182;-96.766;2022-10-22T04:01:06;10.27;;;1.60;;
44272;SDS011;29964;17.182;-96.766;2022-10-22T04:03:33;2.00;;;1.23;;
44272;SDS011;29964;17.182;-96.766;2022-10-22T04:06:01;1.40;;;0.83;;
44272;SDS011;29964;17.182;-96.766;2022-10-22T04:08:28;6.47;;;1.27;;
44272;SDS011;29964;17.182;-96.766;2022-10-22T04:10:54;0.67;;;0.67;;
44272;SDS011;29964;17.182;-96.766;2022-10-22T04:13:21;1.03;;;0.70;;
44272;SDS011;29964;17.182;-96.766;2022-10-22T04:15:51;0.87;;;0.63;;
44272;SDS011;29964;17.182;-96.766;2022-10-22T04:18:18;1.47;;;1.00;;
44272;SDS011;29964;17.182;-96.766;2022-10-22T04:20:46;2.10;;;1.20;;
44272;SDS011;29964;17.182;-96.766;2022-10-22T04:23:13;0.83;;;0.70;;
44272;SDS011;29964;17.182;-96.766;2022-10-22T04:25:39;1.13;;;0.80;;
44272;SDS011;29964;17.182;-96.766;2022-10-22T04:28:06;1.73;;;0.80;;
44272;SDS011;29964;17.182;-96.766;2022-10-22T04:30:34;1.90;;;1.00;;
44272;SDS011;29964;17.182;-96.766;2022-10-22T04:33:01;1.20;;;0.97;;
44272;SDS011;29964;17.182;-96.766;2022-10-22T04:35:28;0.60;;;0.53;;
44272;SDS011;29964;17.182;-96.766;2022-10-22T04:37:55;0.93;;;0.80;;
44272;SDS011;29964;17.182;-96.766;2022-10-22T04:40:22;1.73;;;0.80;;
44272;SDS011;29964;17.182;-96.766;2022-10-22T04:42:48;0.87;;;0.70;;
44272;SDS011;29964;17.182;-96.766;2022-10-22T04:45:15;1.17;;;0.73;;
44272;SDS011;29964;17.182;-96.766;2022-10-22T04:47:42;0.30;;;0.30;;
44272;SDS011;29964;17.182;-96.766;2022-10-22T04:50:09;0.30;;;0.30;;
44272;SDS011;29964;17.182;-96.766;2022-10-22T04:52:35;0.67;;;0.47;;
44272;SDS011;29964;17.182;-96.766;2022-10-22T04:55:02;1.20;;;0.83;;
44272;SDS011;29964;17.182;-96.766;2022-10-22T04:57:29;0.77;;;0.57;;
44272;SDS011;29964;17.182;-96.766;2022-10-22T04:59:56;1.10;;;0.70;;
44272;SDS011;29964;17.182;-96.766;2022-10-22T05:02:23;0.47;;;0.33;;
44272;SDS011;29964;17.182;-96.766;2022-10-22T05:04:49;0.60;;;0.60;;
44272;SDS011;29964;17.182;-96.766;2022-10-22T05:07:16;1.70;;;0.80;;
44272;SDS011;29964;17.182;-96.766;2022-10-22T05:09:43;0.70;;;0.53;;
44272;SDS011;29964;17.182;-96.766;2022-10-22T05:12:09;1.37;;;0.60;;
44272;SDS011;29964;17.182;-96.766;2022-10-22T05:14:36;0.43;;;0.40;;
44272;SDS011;29964;17.182;-96.766;2022-10-22T05:17:02;0.70;;;0.67;;
44272;SDS011;29964;17.182;-96.766;2022-10-22T05:19:29;0.53;;;0.43;;
44272;SDS011;29964;17.182;-96.766;2022-10-22T05:21:57;2.33;;;0.80;;
44272;SDS011;29964;17.182;-96.766;2022-10-22T05:24:25;0.30;;;0.30;;
44272;SDS011;29964;17.182;-96.766;2022-10-22T05:26:52;0.90;;;0.57;;
44272;SDS011;29964;17.182;-96.766;2022-10-22T05:29:19;0.67;;;0.50;;
44272;SDS011;29964;17.182;-96.766;2022-10-22T05:31:46;0.77;;;0.67;;
44272;SDS011;29964;17.182;-96.766;2022-10-22T05:34:13;0.90;;;0.50;;
44272;SDS011;29964;17.182;-96.766;2022-10-22T05:36:40;0.80;;;0.60;;
44272;SDS011;29964;17.182;-96.766;2022-10-22T05:39:06;0.47;;;0.43;;
44272;SDS011;29964;17.182;-96.766;2022-10-22T05:41:34;0.53;;;0.37;;
44272;SDS011;29964;17.182;-96.766;2022-10-22T05:44:00;1.77;;;0.60;;
44272;SDS011;29964;17.182;-96.766;2022-10-22T05:46:27;1.87;;;0.77;;
44272;SDS011;29964;17.182;-96.766;2022-10-22T05:48:55;0.43;;;0.30;;
44272;SDS011;29964;17.182;-96.766;2022-10-22T05:51:22;0.87;;;0.53;;
44272;SDS011;29964;17.182;-96.766;2022-10-22T05:53:51;1.40;;;0.50;;
44272;SDS011;29964;17.182;-96.766;2022-10-22T05:56:18;0.93;;;0.50;;
44272;SDS011;29964;17.182;-96.766;2022-10-22T05:58:44;0.30;;;0.30;;
44272;SDS011;29964;17.182;-96.766;2022-10-22T06:01:13;0.67;;;0.40;;
44272;SDS011;29964;17.182;-96.766;2022-10-22T06:03:40;0.67;;;0.53;;
44272;SDS011;29964;17.182;-96.766;2022-10-22T06:06:11;0.30;;;0.30;;
44272;SDS011;29964;17.182;-96.766;2022-10-22T06:08:40;0.60;;;0.43;;
44272;SDS011;29964;17.182;-96.766;2022-10-22T06:11:06;0.73;;;0.53;;
44272;SDS011;29964;17.182;-96.766;2022-10-22T06:13:33;0.80;;;0.40;;
44272;SDS011;29964;17.182;-96.766;2022-10-22T06:16:00;0.37;;;0.30;;
44272;SDS011;29964;17.182;-96.766;2022-10-22T06:18:26;0.53;;;0.43;;
44272;SDS011;29964;17.182;-96.766;2022-10-22T06:20:53;6.03;;;0.60;;
44272;SDS011;29964;17.182;-96.766;2022-10-22T06:23:20;1.47;;;0.80;;
44272;SDS011;29964;17.182;-96.766;2022-10-22T06:25:56;0.50;;;0.30;;
44272;SDS011;29964;17.182;-96.766;2022-10-22T06:28:23;1.03;;;0.70;;
44272;SDS011;29964;17.182;-96.766;2022-10-22T06:30:50;2.03;;;0.43;;
44272;SDS011;29964;17.182;-96.766;2022-10-22T06:33:16;0.20;;;0.20;;
44272;SDS011;29964;17.182;-96.766;2022-10-22T06:35:43;0.40;;;0.37;;
44272;SDS011;29964;17.182;-96.766;2022-10-22T06:38:10;0.67;;;0.40;;
44272;SDS011;29964;17.182;-96.766;2022-10-22T06:40:37;0.20;;;0.20;;
44272;SDS011;29964;17.182;-96.766;2022-10-22T06:43:08;0.67;;;0.50;;
44272;SDS011;29964;17.182;-96.766;2022-10-22T06:45:35;3.27;;;0.90;;
44272;SDS011;29964;17.182;-96.766;2022-10-22T06:48:01;1.10;;;0.60;;
44272;SDS011;29964;17.182;-96.766;2022-10-22T06:50:28;2.87;;;0.97;;
44272;SDS011;29964;17.182;-96.766;2022-10-22T06:52:55;0.70;;;0.50;;
44272;SDS011;29964;17.182;-96.766;2022-10-22T06:55:22;0.63;;;0.43;;
44272;SDS011;29964;17.182;-96.766;2022-10-22T06:57:49;13.07;;;0.60;;
44272;SDS011;29964;17.182;-96.766;2022-10-22T07:00:16;0.63;;;0.30;;
44272;SDS011;29964;17.182;-96.766;2022-10-22T07:02:43;1.13;;;0.53;;
44272;SDS011;29964;17.182;-96.766;2022-10-22T07:05:09;0.20;;;0.20;;
44272;SDS011;29964;17.182;-96.766;2022-10-22T07:07:36;0.73;;;0.60;;
44272;SDS011;29964;17.182;-96.766;2022-10-22T07:10:03;0.67;;;0.37;;
44272;SDS011;29964;17.182;-96.766;2022-10-22T07:12:30;0.30;;;0.30;;
44272;SDS011;29964;17.182;-96.766;2022-10-22T07:14:59;0.17;;;0.17;;
44272;SDS011;29964;17.182;-96.766;2022-10-22T07:17:25;1.10;;;0.80;;
44272;SDS011;29964;17.182;-96.766;2022-10-22T07:19:52;0.50;;;0.37;;
44272;SDS011;29964;17.182;-96.766;2022-10-22T07:22:19;0.77;;;0.37;;
44272;SDS011;29964;17.182;-96.766;2022-10-22T07:24:45;0.63;;;0.47;;
44272;SDS011;29964;17.182;-96.766;2022-10-22T07:27:12;0.50;;;0.40;;
44272;SDS011;29964;17.182;-96.766;2022-10-22T07:29:39;0.43;;;0.30;;
44272;SDS011;29964;17.182;-96.766;2022-10-22T07:32:05;2.83;;;0.47;;
44272;SDS011;29964;17.182;-96.766;2022-10-22T07:34:32;0.40;;;0.30;;
44272;SDS011;29964;17.182;-96.766;2022-10-22T07:36:59;0.03;;;0.03;;
44272;SDS011;29964;17.182;-96.766;2022-10-22T07:39:26;0.30;;;0.20;;
44272;SDS011;29964;17.182;-96.766;2022-10-22T07:41:53;1.20;;;0.60;;
44272;SDS011;29964;17.182;-96.766;2022-10-22T07:44:19;1.00;;;0.57;;
44272;SDS011;29964;17.182;-96.766;2022-10-22T07:46:46;0.77;;;0.50;;
44272;SDS011;29964;17.182;-96.766;2022-10-22T07:49:13;1.33;;;0.60;;
44272;SDS011;29964;17.182;-96.766;2022-10-22T07:51:39;0.50;;;0.50;;
44272;SDS011;29964;17.182;-96.766;2022-10-22T07:54:06;0.70;;;0.37;;
44272;SDS011;29964;17.182;-96.766;2022-10-22T07:56:33;0.27;;;0.20;;
44272;SDS011;29964;17.182;-96.766;2022-10-22T07:59:00;26.57;;;1.10;;
44272;SDS011;29964;17.182;-96.766;2022-10-22T08:01:26;0.40;;;0.40;;
44272;SDS011;29964;17.182;-96.766;2022-10-22T08:03:53;0.57;;;0.40;;
44272;SDS011;29964;17.182;-96.766;2022-10-22T08:06:19;0.57;;;0.40;;
44272;SDS011;29964;17.182;-96.766;2022-10-22T08:08:46;0.30;;;0.20;;
44272;SDS011;29964;17.182;-96.766;2022-10-22T08:11:13;0.40;;;0.30;;
44272;SDS011;29964;17.182;-96.766;2022-10-22T08:13:40;0.20;;;0.13;;
44272;SDS011;29964;17.182;-96.766;2022-10-22T08:16:07;0.30;;;0.23;;
44272;SDS011;29964;17.182;-96.766;2022-10-22T08:18:33;0.30;;;0.20;;
44272;SDS011;29964;17.182;-96.766;2022-10-22T08:21:00;1.00;;;0.50;;
44272;SDS011;29964;17.182;-96.766;2022-10-22T08:23:27;0.40;;;0.37;;
44272;SDS011;29964;17.182;-96.766;2022-10-22T08:25:54;0.17;;;0.17;;
44272;SDS011;29964;17.182;-96.766;2022-10-22T08:28:20;1.07;;;0.40;;
44272;SDS011;29964;17.182;-96.766;2022-10-22T08:30:47;0.13;;;0.13;;
44272;SDS011;29964;17.182;-96.766;2022-10-22T08:33:14;1.10;;;0.40;;
44272;SDS011;29964;17.182;-96.766;2022-10-22T08:35:40;0.30;;;0.20;;
44272;SDS011;29964;17.182;-96.766;2022-10-22T08:38:07;0.57;;;0.47;;
44272;SDS011;29964;17.182;-96.766;2022-10-22T08:40:36;1.07;;;0.50;;
44272;SDS011;29964;17.182;-96.766;2022-10-22T08:45:49;1.70;;;0.63;;
44272;SDS011;29964;17.182;-96.766;2022-10-22T08:50:51;0.67;;;0.40;;
44272;SDS011;29964;17.182;-96.766;2022-10-22T08:53:22;0.30;;;0.30;;
44272;SDS011;29964;17.182;-96.766;2022-10-22T08:55:51;0.77;;;0.30;;
44272;SDS011;29964;17.182;-96.766;2022-10-22T08:58:24;0.37;;;0.37;;
44272;SDS011;29964;17.182;-96.766;2022-10-22T09:00:58;1.00;;;0.60;;
44272;SDS011;29964;17.182;-96.766;2022-10-22T09:06:09;1.03;;;0.63;;
44272;SDS011;29964;17.182;-96.766;2022-10-22T09:08:37;1.00;;;0.53;;
44272;SDS011;29964;17.182;-96.766;2022-10-22T09:13:34;16.13;;;1.00;;
44272;SDS011;29964;17.182;-96.766;2022-10-22T09:16:10;1.23;;;0.87;;
44272;SDS011;29964;17.182;-96.766;2022-10-22T09:18:47;0.90;;;0.60;;
44272;SDS011;29964;17.182;-96.766;2022-10-22T09:21:19;0.77;;;0.67;;
44272;SDS011;29964;17.182;-96.766;2022-10-22T09:26:15;2.57;;;1.10;;
44272;SDS011;29964;17.182;-96.766;2022-10-22T09:28:42;1.73;;;0.83;;
44272;SDS011;29964;17.182;-96.766;2022-10-22T09:31:12;7.33;;;1.03;;
44272;SDS011;29964;17.182;-96.766;2022-10-22T09:33:40;0.87;;;0.73;;
44272;SDS011;29964;17.182;-96.766;2022-10-22T09:36:06;2.40;;;1.63;;
44272;SDS011;29964;17.182;-96.766;2022-10-22T09:38:38;1.10;;;0.70;;
44272;SDS011;29964;17.182;-96.766;2022-10-22T09:41:05;2.93;;;0.90;;
44272;SDS011;29964;17.182;-96.766;2022-10-22T09:43:31;0.70;;;0.50;;
44272;SDS011;29964;17.182;-96.766;2022-10-22T09:46:01;1.83;;;0.90;;
44272;SDS011;29964;17.182;-96.766;2022-10-22T09:51:11;0.87;;;0.60;;
44272;SDS011;29964;17.182;-96.766;2022-10-22T09:53:43;1.57;;;0.70;;
44272;SDS011;29964;17.182;-96.766;2022-10-22T09:56:20;0.97;;;0.73;;
44272;SDS011;29964;17.182;-96.766;2022-10-22T09:58:49;0.97;;;0.63;;
44272;SDS011;29964;17.182;-96.766;2022-10-22T10:01:21;1.50;;;0.90;;
44272;SDS011;29964;17.182;-96.766;2022-10-22T10:03:49;0.80;;;0.60;;
44272;SDS011;29964;17.182;-96.766;2022-10-22T10:06:19;0.67;;;0.53;;
44272;SDS011;29964;17.182;-96.766;2022-10-22T10:08:46;0.40;;;0.40;;
44272;SDS011;29964;17.182;-96.766;2022-10-22T10:11:18;0.73;;;0.63;;
44272;SDS011;29964;17.182;-96.766;2022-10-22T10:13:53;8.10;;;0.90;;
44272;SDS011;29964;17.182;-96.766;2022-10-22T10:16:37;1.30;;;0.40;;
44272;SDS011;29964;17.182;-96.766;2022-10-22T10:24:24;0.50;;;0.40;;
44272;SDS011;29964;17.182;-96.766;2022-10-22T10:26:55;0.77;;;0.47;;
44272;SDS011;29964;17.182;-96.766;2022-10-22T10:29:35;2.03;;;0.33;;
44272;SDS011;29964;17.182;-96.766;2022-10-22T10:37:30;1.77;;;0.77;;
44272;SDS011;29964;17.182;-96.766;2022-10-22T10:40:24;1.20;;;0.63;;
44272;SDS011;29964;17.182;-96.766;2022-10-22T10:45:36;1.10;;;0.67;;
44272;SDS011;29964;17.182;-96.766;2022-10-22T10:50:43;0.33;;;0.30;;
44272;SDS011;29964;17.182;-96.766;2022-10-22T11:01:14;0.20;;;0.20;;
44272;SDS011;29964;17.182;-96.766;2022-10-22T11:03:50;0.27;;;0.27;;
44272;SDS011;29964;17.182;-96.766;2022-10-22T11:06:18;0.20;;;0.20;;
44272;SDS011;29964;17.182;-96.766;2022-10-22T11:08:49;0.50;;;0.50;;
44272;SDS011;29964;17.182;-96.766;2022-10-22T11:11:28;0.53;;;0.43;;
44272;SDS011;29964;17.182;-96.766;2022-10-22T11:14:00;0.30;;;0.30;;
44272;SDS011;29964;17.182;-96.766;2022-10-22T11:21:41;0.47;;;0.40;;
44272;SDS011;29964;17.182;-96.766;2022-10-22T11:24:17;0.93;;;0.70;;
44272;SDS011;29964;17.182;-96.766;2022-10-22T11:26:47;0.30;;;0.30;;
44272;SDS011;29964;17.182;-96.766;2022-10-22T11:29:26;2.37;;;0.50;;
44272;SDS011;29964;17.182;-96.766;2022-10-22T11:31:54;0.53;;;0.43;;
44272;SDS011;29964;17.182;-96.766;2022-10-22T11:34:25;0.60;;;0.47;;
44272;SDS011;29964;17.182;-96.766;2022-10-22T11:36:53;1.00;;;0.80;;
44272;SDS011;29964;17.182;-96.766;2022-10-22T11:41:56;1.03;;;0.70;;
44272;SDS011;29964;17.182;-96.766;2022-10-22T11:44:23;0.40;;;0.40;;
44272;SDS011;29964;17.182;-96.766;2022-10-22T11:50:15;0.52;;;0.45;;
44272;SDS011;29964;17.182;-96.766;2022-10-22T11:52:48;0.73;;;0.50;;
44272;SDS011;29964;17.182;-96.766;2022-10-22T11:55:31;1.80;;;1.03;;
44272;SDS011;29964;17.182;-96.766;2022-10-22T11:57:59;3.60;;;1.30;;
44272;SDS011;29964;17.182;-96.766;2022-10-22T12:00:39;0.60;;;0.57;;
44272;SDS011;29964;17.182;-96.766;2022-10-22T12:03:40;1.50;;;0.63;;
44272;SDS011;29964;17.182;-96.766;2022-10-22T12:08:45;0.90;;;0.60;;
44272;SDS011;29964;17.182;-96.766;2022-10-22T12:16:24;0.67;;;0.57;;
44272;SDS011;29964;17.182;-96.766;2022-10-22T12:21:43;1.23;;;0.63;;
44272;SDS011;29964;17.182;-96.766;2022-10-22T12:24:13;2.20;;;1.27;;
44272;SDS011;29964;17.182;-96.766;2022-10-22T12:26:40;36.17;;;1.73;;
44272;SDS011;29964;17.182;-96.766;2022-10-22T12:29:09;0.53;;;0.53;;
44272;SDS011;29964;17.182;-96.766;2022-10-22T12:31:37;1.20;;;0.90;;
44272;SDS011;29964;17.182;-96.766;2022-10-22T12:34:04;2.20;;;1.17;;
44272;SDS011;29964;17.182;-96.766;2022-10-22T12:36:34;1.90;;;1.30;;
44272;SDS011;29964;17.182;-96.766;2022-10-22T12:39:02;1.73;;;0.97;;
44272;SDS011;29964;17.182;-96.766;2022-10-22T12:41:33;1.83;;;0.90;;
44272;SDS011;29964;17.182;-96.766;2022-10-22T12:44:00;1.83;;;1.33;;
44272;SDS011;29964;17.182;-96.766;2022-10-22T12:46:27;1.70;;;1.27;;
44272;SDS011;29964;17.182;-96.766;2022-10-22T12:48:57;3.63;;;1.73;;
44272;SDS011;29964;17.182;-96.766;2022-10-22T12:51:24;1.47;;;1.10;;
44272;SDS011;29964;17.182;-96.766;2022-10-22T12:53:52;2.27;;;1.20;;
44272;SDS011;29964;17.182;-96.766;2022-10-22T12:56:22;1.53;;;1.30;;
44272;SDS011;29964;17.182;-96.766;2022-10-22T12:58:52;1.93;;;1.57;;
44272;SDS011;29964;17.182;-96.766;2022-10-22T13:01:20;13.93;;;1.43;;
44272;SDS011;29964;17.182;-96.766;2022-10-22T13:03:48;1.50;;;1.07;;
44272;SDS011;29964;17.182;-96.766;2022-10-22T13:08:56;3.43;;;1.20;;
44272;SDS011;29964;17.182;-96.766;2022-10-22T13:11:29;2.13;;;1.37;;
44272;SDS011;29964;17.182;-96.766;2022-10-22T13:14:00;3.20;;;1.97;;
44272;SDS011;29964;17.182;-96.766;2022-10-22T13:16:27;2.07;;;1.53;;
44272;SDS011;29964;17.182;-96.766;2022-10-22T13:18:56;2.20;;;1.67;;
44272;SDS011;29964;17.182;-96.766;2022-10-22T13:21:33;3.53;;;1.73;;
44272;SDS011;29964;17.182;-96.766;2022-10-22T13:24:01;2.07;;;1.33;;
44272;SDS011;29964;17.182;-96.766;2022-10-22T13:26:29;1.80;;;1.13;;
44272;SDS011;29964;17.182;-96.766;2022-10-22T13:28:57;2.93;;;1.20;;
44272;SDS011;29964;17.182;-96.766;2022-10-22T13:31:29;6.20;;;1.73;;
44272;SDS011;29964;17.182;-96.766;2022-10-22T13:34:01;3.03;;;1.67;;
44272;SDS011;29964;17.182;-96.766;2022-10-22T13:36:31;1.40;;;1.00;;
44272;SDS011;29964;17.182;-96.766;2022-10-22T13:38:58;1.13;;;0.80;;
44272;SDS011;29964;17.182;-96.766;2022-10-22T13:41:25;2.20;;;1.30;;
44272;SDS011;29964;17.182;-96.766;2022-10-22T13:43:53;1.53;;;1.17;;
44272;SDS011;29964;17.182;-96.766;2022-10-22T13:46:21;1.03;;;0.80;;
44272;SDS011;29964;17.182;-96.766;2022-10-22T13:48:48;1.67;;;1.03;;
44272;SDS011;29964;17.182;-96.766;2022-10-22T13:51:35;1.47;;;1.03;;
44272;SDS011;29964;17.182;-96.766;2022-10-22T13:54:02;1.15;;;0.80;;
44272;SDS011;29964;17.182;-96.766;2022-10-22T13:56:29;1.33;;;1.10;;
44272;SDS011;29964;17.182;-96.766;2022-10-22T13:58:56;1.87;;;1.40;;
44272;SDS011;29964;17.182;-96.766;2022-10-22T14:01:24;2.03;;;1.47;;
44272;SDS011;29964;17.182;-96.766;2022-10-22T14:03:51;2.40;;;1.30;;
44272;SDS011;29964;17.182;-96.766;2022-10-22T14:06:19;5.33;;;1.83;;
44272;SDS011;29964;17.182;-96.766;2022-10-22T14:08:51;3.90;;;1.60;;
44272;SDS011;29964;17.182;-96.766;2022-10-22T14:11:20;3.70;;;1.23;;
44272;SDS011;29964;17.182;-96.766;2022-10-22T14:13:46;1.67;;;1.13;;
44272;SDS011;29964;17.182;-96.766;2022-10-22T14:16:20;3.13;;;0.70;;
44272;SDS011;29964;17.182;-96.766;2022-10-22T14:18:48;1.33;;;1.00;;
44272;SDS011;29964;17.182;-96.766;2022-10-22T14:21:15;1.70;;;0.73;;
44272;SDS011;29964;17.182;-96.766;2022-10-22T14:23:43;2.87;;;1.10;;
44272;SDS011;29964;17.182;-96.766;2022-10-22T14:26:29;0.57;;;0.50;;
44272;SDS011;29964;17.182;-96.766;2022-10-22T14:28:57;0.53;;;0.50;;
44272;SDS011;29964;17.182;-96.766;2022-10-22T14:31:25;0.93;;;0.60;;
44272;SDS011;29964;17.182;-96.766;2022-10-22T14:33:51;4.70;;;2.33;;
44272;SDS011;29964;17.182;-96.766;2022-10-22T14:36:18;7.53;;;2.40;;
44272;SDS011;29964;17.182;-96.766;2022-10-22T14:38:46;7.90;;;2.77;;
44272;SDS011;29964;17.182;-96.766;2022-10-22T14:41:20;4.00;;;2.70;;
44272;SDS011;29964;17.182;-96.766;2022-10-22T14:43:50;4.50;;;2.67;;
44272;SDS011;29964;17.182;-96.766;2022-10-22T14:46:20;3.43;;;2.57;;
44272;SDS011;29964;17.182;-96.766;2022-10-22T14:48:47;4.57;;;2.77;;
44272;SDS011;29964;17.182;-96.766;2022-10-22T14:51:14;6.83;;;3.17;;
44272;SDS011;29964;17.182;-96.766;2022-10-22T14:53:41;6.30;;;3.70;;
44272;SDS011;29964;17.182;-96.766;2022-10-22T14:56:12;40.40;;;3.47;;
44272;SDS011;29964;17.182;-96.766;2022-10-22T14:58:39;5.67;;;3.70;;
44272;SDS011;29964;17.182;-96.766;2022-10-22T15:01:07;6.03;;;3.13;;
44272;SDS011;29964;17.182;-96.766;2022-10-22T15:03:34;9.43;;;3.33;;
44272;SDS011;29964;17.182;-96.766;2022-10-22T15:06:00;17.00;;;3.30;;
44272;SDS011;29964;17.182;-96.766;2022-10-22T15:08:27;5.17;;;3.07;;
44272;SDS011;29964;17.182;-96.766;2022-10-22T15:11:02;5.33;;;2.80;;
44272;SDS011;29964;17.182;-96.766;2022-10-22T15:15:55;6.20;;;4.43;;
44272;SDS011;29964;17.182;-96.766;2022-10-22T15:18:22;6.70;;;4.23;;
44272;SDS011;29964;17.182;-96.766;2022-10-22T15:21:00;7.93;;;3.40;;
44272;SDS011;29964;17.182;-96.766;2022-10-22T15:23:32;6.20;;;3.43;;
44272;SDS011;29964;17.182;-96.766;2022-10-22T15:26:05;5.93;;;4.20;;
44272;SDS011;29964;17.182;-96.766;2022-10-22T15:28:32;3.00;;;2.20;;
44272;SDS011;29964;17.182;-96.766;2022-10-22T15:30:59;4.33;;;2.90;;
44272;SDS011;29964;17.182;-96.766;2022-10-22T15:33:26;4.27;;;2.67;;
44272;SDS011;29964;17.182;-96.766;2022-10-22T15:35:54;5.47;;;3.37;;
44272;SDS011;29964;17.182;-96.766;2022-10-22T15:38:21;3.67;;;2.40;;
44272;SDS011;29964;17.182;-96.766;2022-10-22T15:40:47;6.10;;;2.93;;
44272;SDS011;29964;17.182;-96.766;2022-10-22T15:43:14;4.63;;;2.70;;
44272;SDS011;29964;17.182;-96.766;2022-10-22T15:45:41;4.13;;;2.10;;
44272;SDS011;29964;17.182;-96.766;2022-10-22T15:48:07;2.33;;;1.60;;
44272;SDS011;29964;17.182;-96.766;2022-10-22T15:50:37;3.13;;;1.83;;
44272;SDS011;29964;17.182;-96.766;2022-10-22T15:53:04;6.23;;;2.23;;
44272;SDS011;29964;17.182;-96.766;2022-10-22T15:55:31;2.37;;;1.43;;
44272;SDS011;29964;17.182;-96.766;2022-10-22T15:57:57;1.70;;;1.20;;
44272;SDS011;29964;17.182;-96.766;2022-10-22T16:00:24;3.43;;;2.03;;